Terminal Aerodrome Forecast
Issued by NWS Chicago, IL

Home | Current Version | Previous Version | Text Only | Print | Product List | Glossary On
Versions: 1 2 3 4 5 6 7 8 9 10 11 12 13 14 15 16 17 18 19 20 21 22 23 24 25 26
320
FTUS43 KLOT 041720
TAFRFD
TAF
KRFD 041720Z 0418/0518 16007KT 1/2SM SN SCT004 OVC008
      TEMPO 0418/0420 1/4SM +SN OVC004
     FM042000 18008KT 1SM -SN BR OVC005
     FM042300 21007KT 6SM -SNDZ BR OVC006
     FM050100 24008KT P6SM OVC008
     FM051400 19010KT P6SM BKN008=

USA.gov is the U.S. government's official web portal to all federal, state and local government web resources and services.